sensor_id;sensor_type;location;lat;lon;timestamp;pressure;altitude;pressure_sealevel;temperature;humidity
21395;BME280;10858;42.714;23.180;2023-04-02T00:07:47;93534.25;;;7.46;71.85
21395;BME280;10858;42.714;23.180;2023-04-02T00:10:48;93525.81;;;7.52;71.53
21395;BME280;10858;42.714;23.180;2023-04-02T00:15:43;93524.44;;;7.67;70.94
21395;BME280;10858;42.714;23.180;2023-04-02T00:18:20;93519.97;;;7.77;70.53
21395;BME280;10858;42.714;23.180;2023-04-02T00:23:39;93522.47;;;7.88;70.42
21395;BME280;10858;42.714;23.180;2023-04-02T00:29:00;93508.03;;;7.54;71.78
21395;BME280;10858;42.714;23.180;2023-04-02T00:31:27;93507.06;;;7.55;71.33
21395;BME280;10858;42.714;23.180;2023-04-02T00:33:54;93509.44;;;7.77;70.41
21395;BME280;10858;42.714;23.180;2023-04-02T00:36:21;93512.59;;;7.90;69.79
21395;BME280;10858;42.714;23.180;2023-04-02T00:38:50;93507.59;;;7.68;70.59
21395;BME280;10858;42.714;23.180;2023-04-02T00:41:21;93505.66;;;7.70;71.38
21395;BME280;10858;42.714;23.180;2023-04-02T00:43:49;93505.78;;;7.88;70.24
21395;BME280;10858;42.714;23.180;2023-04-02T00:46:18;93508.31;;;7.89;70.04
21395;BME280;10858;42.714;23.180;2023-04-02T00:51:27;93514.97;;;7.74;70.38
21395;BME280;10858;42.714;23.180;2023-04-02T00:53:57;93515.25;;;7.52;71.03
21395;BME280;10858;42.714;23.180;2023-04-02T00:56:36;93520.78;;;7.20;72.83
21395;BME280;10858;42.714;23.180;2023-04-02T00:59:11;93519.75;;;6.93;74.06
21395;BME280;10858;42.714;23.180;2023-04-02T01:01:42;93523.72;;;6.77;74.84
21395;BME280;10858;42.714;23.180;2023-04-02T01:04:29;93523.63;;;6.88;74.78
21395;BME280;10858;42.714;23.180;2023-04-02T01:06:57;93525.84;;;6.53;75.92
21395;BME280;10858;42.714;23.180;2023-04-02T01:23:17;93531.59;;;6.38;76.67
21395;BME280;10858;42.714;23.180;2023-04-02T01:31:29;93531.19;;;6.12;78.10
21395;BME280;10858;42.714;23.180;2023-04-02T01:33:58;93529.78;;;6.08;78.19
21395;BME280;10858;42.714;23.180;2023-04-02T01:45:10;93514.88;;;5.77;80.05
21395;BME280;10858;42.714;23.180;2023-04-02T01:47:37;93519.16;;;5.78;80.35
21395;BME280;10858;42.714;23.180;2023-04-02T01:52:50;93526.91;;;6.11;78.70
21395;BME280;10858;42.714;23.180;2023-04-02T01:55:24;93525.69;;;6.15;78.53
21395;BME280;10858;42.714;23.180;2023-04-02T01:57:52;93517.44;;;6.29;77.98
21395;BME280;10858;42.714;23.180;2023-04-02T02:00:19;93526.13;;;6.50;76.63
21395;BME280;10858;42.714;23.180;2023-04-02T02:02:49;93519.03;;;6.41;76.91
21395;BME280;10858;42.714;23.180;2023-04-02T02:05:19;93523.59;;;6.39;77.06
21395;BME280;10858;42.714;23.180;2023-04-02T02:07:46;93518.69;;;6.35;77.40
21395;BME280;10858;42.714;23.180;2023-04-02T02:10:20;93527.09;;;6.19;77.98
21395;BME280;10858;42.714;23.180;2023-04-02T02:12:48;93522.84;;;6.07;78.66
21395;BME280;10858;42.714;23.180;2023-04-02T02:15:17;93520.50;;;6.14;78.63
21395;BME280;10858;42.714;23.180;2023-04-02T02:17:44;93519.72;;;6.43;76.75
21395;BME280;10858;42.714;23.180;2023-04-02T02:20:11;93524.78;;;6.65;75.58
21395;BME280;10858;42.714;23.180;2023-04-02T02:22:48;93514.28;;;6.75;75.13
21395;BME280;10858;42.714;23.180;2023-04-02T02:25:24;93518.38;;;6.58;75.70
21395;BME280;10858;42.714;23.180;2023-04-02T02:31:02;93510.53;;;6.38;76.83
21395;BME280;10858;42.714;23.180;2023-04-02T02:33:35;93508.75;;;6.48;76.32
21395;BME280;10858;42.714;23.180;2023-04-02T02:36:03;93519.97;;;6.70;74.92
21395;BME280;10858;42.714;23.180;2023-04-02T02:38:41;93518.06;;;6.92;73.96
21395;BME280;10858;42.714;23.180;2023-04-02T02:44:01;93520.63;;;7.12;73.17
21395;BME280;10858;42.714;23.180;2023-04-02T02:46:29;93514.41;;;7.23;72.51
21395;BME280;10858;42.714;23.180;2023-04-02T02:48:58;93526.56;;;6.95;73.52
21395;BME280;10858;42.714;23.180;2023-04-02T02:51:29;93524.88;;;6.94;73.71
21395;BME280;10858;42.714;23.180;2023-04-02T02:54:03;93529.63;;;7.00;73.72
21395;BME280;10858;42.714;23.180;2023-04-02T02:56:32;93527.50;;;6.84;73.52
21395;BME280;10858;42.714;23.180;2023-04-02T02:59:04;93525.97;;;6.92;73.83
21395;BME280;10858;42.714;23.180;2023-04-02T03:01:32;93530.00;;;6.96;73.48
21395;BME280;10858;42.714;23.180;2023-04-02T03:03:59;93533.16;;;6.80;73.86
21395;BME280;10858;42.714;23.180;2023-04-02T03:06:25;93529.72;;;6.89;73.37
21395;BME280;10858;42.714;23.180;2023-04-02T03:14:46;93518.91;;;6.22;77.09
21395;BME280;10858;42.714;23.180;2023-04-02T03:17:27;93520.19;;;6.28;77.44
21395;BME280;10858;42.714;23.180;2023-04-02T03:22:31;93523.41;;;6.31;76.42
21395;BME280;10858;42.714;23.180;2023-04-02T03:27:39;93524.69;;;6.16;77.12
21395;BME280;10858;42.714;23.180;2023-04-02T03:32:56;93517.34;;;6.40;75.71
21395;BME280;10858;42.714;23.180;2023-04-02T03:35:42;93529.88;;;6.57;74.55
21395;BME280;10858;42.714;23.180;2023-04-02T03:41:00;93534.13;;;7.38;70.72
21395;BME280;10858;42.714;23.180;2023-04-02T03:43:35;93535.41;;;7.62;69.63
21395;BME280;10858;42.714;23.180;2023-04-02T03:46:31;93527.47;;;7.91;67.29
21395;BME280;10858;42.714;23.180;2023-04-02T03:49:11;93518.03;;;7.79;68.39
21395;BME280;10858;42.714;23.180;2023-04-02T03:52:04;93520.66;;;7.60;68.41
21395;BME280;10858;42.714;23.180;2023-04-02T03:54:31;93516.66;;;7.65;68.14
21395;BME280;10858;42.714;23.180;2023-04-02T03:56:59;93518.03;;;7.60;68.60
21395;BME280;10858;42.714;23.180;2023-04-02T04:02:01;93519.97;;;7.58;67.92
21395;BME280;10858;42.714;23.180;2023-04-02T04:04:33;93531.78;;;7.54;68.03
21395;BME280;10858;42.714;23.180;2023-04-02T04:07:08;93536.78;;;7.47;68.84
21395;BME280;10858;42.714;23.180;2023-04-02T04:09:37;93538.59;;;7.47;68.73
21395;BME280;10858;42.714;23.180;2023-04-02T04:14:36;93548.22;;;6.99;70.99
21395;BME280;10858;42.714;23.180;2023-04-02T04:22:35;93550.22;;;6.46;72.38
21395;BME280;10858;42.714;23.180;2023-04-02T04:25:19;93551.84;;;6.37;72.90
21395;BME280;10858;42.714;23.180;2023-04-02T04:30:39;93553.41;;;5.98;74.93
21395;BME280;10858;42.714;23.180;2023-04-02T04:33:21;93554.44;;;5.86;76.25
21395;BME280;10858;42.714;23.180;2023-04-02T04:35:59;93559.00;;;5.73;76.57
21395;BME280;10858;42.714;23.180;2023-04-02T04:38:30;93551.19;;;5.83;76.68
21395;BME280;10858;42.714;23.180;2023-04-02T04:41:26;93551.66;;;5.88;76.19
21395;BME280;10858;42.714;23.180;2023-04-02T04:44:09;93551.41;;;6.12;75.94
21395;BME280;10858;42.714;23.180;2023-04-02T04:46:41;93559.94;;;6.25;74.99
21395;BME280;10858;42.714;23.180;2023-04-02T04:49:12;93564.78;;;6.80;74.80
21395;BME280;10858;42.714;23.180;2023-04-02T04:54:14;93568.38;;;8.62;66.64
21395;BME280;10858;42.714;23.180;2023-04-02T04:56:48;93561.94;;;8.84;66.48
21395;BME280;10858;42.714;23.180;2023-04-02T04:59:29;93558.22;;;9.93;63.09
21395;BME280;10858;42.714;23.180;2023-04-02T05:04:51;93563.66;;;11.30;56.37
21395;BME280;10858;42.714;23.180;2023-04-02T05:07:31;93560.94;;;11.63;55.31
21395;BME280;10858;42.714;23.180;2023-04-02T05:10:10;93566.59;;;12.58;52.76
21395;BME280;10858;42.714;23.180;2023-04-02T05:13:03;93558.38;;;14.24;48.93
21395;BME280;10858;42.714;23.180;2023-04-02T05:22:02;93564.22;;;16.19;43.40
21395;BME280;10858;42.714;23.180;2023-04-02T05:27:32;93566.97;;;18.00;39.39
21395;BME280;10858;42.714;23.180;2023-04-02T05:33:05;93571.56;;;21.48;33.87
21395;BME280;10858;42.714;23.180;2023-04-02T05:35:43;93562.75;;;21.83;32.14
21395;BME280;10858;42.714;23.180;2023-04-02T05:38:20;93568.25;;;20.90;34.41
21395;BME280;10858;42.714;23.180;2023-04-02T05:40:50;93572.88;;;19.55;36.42
21395;BME280;10858;42.714;23.180;2023-04-02T05:43:22;93575.34;;;19.63;35.65
21395;BME280;10858;42.714;23.180;2023-04-02T05:45:56;93577.53;;;17.46;39.24
21395;BME280;10858;42.714;23.180;2023-04-02T05:48:31;93590.06;;;15.24;41.84
21395;BME280;10858;42.714;23.180;2023-04-02T05:51:00;93582.22;;;13.87;45.97
21395;BME280;10858;42.714;23.180;2023-04-02T05:53:35;93584.28;;;13.38;47.88
21395;BME280;10858;42.714;23.180;2023-04-02T05:56:45;93586.63;;;13.33;49.42
21395;BME280;10858;42.714;23.180;2023-04-02T05:59:22;93584.38;;;12.82;51.38
21395;BME280;10858;42.714;23.180;2023-04-02T06:01:58;93582.41;;;13.86;48.94
21395;BME280;10858;42.714;23.180;2023-04-02T06:04:40;93586.81;;;14.01;48.97
21395;BME280;10858;42.714;23.180;2023-04-02T06:12:41;93585.25;;;17.28;40.85
21395;BME280;10858;42.714;23.180;2023-04-02T06:15:20;93590.81;;;17.26;39.45
21395;BME280;10858;42.714;23.180;2023-04-02T06:18:04;93594.81;;;15.81;41.25
21395;BME280;10858;42.714;23.180;2023-04-02T06:20:31;93596.31;;;15.69;42.18
21395;BME280;10858;42.714;23.180;2023-04-02T06:22:58;93594.59;;;16.47;40.05
21395;BME280;10858;42.714;23.180;2023-04-02T06:25:30;93591.66;;;18.29;38.75
21395;BME280;10858;42.714;23.180;2023-04-02T06:28:00;93595.53;;;20.05;33.96
21395;BME280;10858;42.714;23.180;2023-04-02T06:30:37;93594.28;;;20.14;33.71
21395;BME280;10858;42.714;23.180;2023-04-02T06:33:04;93593.41;;;22.32;31.39
21395;BME280;10858;42.714;23.180;2023-04-02T06:35:33;93590.31;;;23.65;28.22
21395;BME280;10858;42.714;23.180;2023-04-02T06:38:02;93593.38;;;22.50;29.08
21395;BME280;10858;42.714;23.180;2023-04-02T06:40:51;93600.69;;;21.39;30.48
21395;BME280;10858;42.714;23.180;2023-04-02T06:43:36;93592.38;;;21.16;30.87
21395;BME280;10858;42.714;23.180;2023-04-02T06:46:37;93597.66;;;20.98;30.26
21395;BME280;10858;42.714;23.180;2023-04-02T06:51:44;93597.59;;;20.67;32.25
21395;BME280;10858;42.714;23.180;2023-04-02T06:54:15;93598.84;;;20.13;33.45
21395;BME280;10858;42.714;23.180;2023-04-02T06:56:47;93614.47;;;19.66;33.91
21395;BME280;10858;42.714;23.180;2023-04-02T06:59:15;93610.53;;;19.35;35.34
21395;BME280;10858;42.714;23.180;2023-04-02T07:01:49;93617.56;;;19.56;33.08
21395;BME280;10858;42.714;23.180;2023-04-02T07:04:18;93615.25;;;21.87;29.71
21395;BME280;10858;42.714;23.180;2023-04-02T07:06:45;93615.84;;;20.71;30.85
21395;BME280;10858;42.714;23.180;2023-04-02T07:09:11;93622.28;;;19.93;32.60
21395;BME280;10858;42.714;23.180;2023-04-02T07:11:38;93614.34;;;20.82;32.24
21395;BME280;10858;42.714;23.180;2023-04-02T07:14:04;93624.09;;;20.25;31.19
21395;BME280;10858;42.714;23.180;2023-04-02T07:16:32;93614.69;;;21.30;33.12
21395;BME280;10858;42.714;23.180;2023-04-02T07:18:59;93627.31;;;20.98;30.88
21395;BME280;10858;42.714;23.180;2023-04-02T07:21:26;93625.84;;;19.61;32.61
21395;BME280;10858;42.714;23.180;2023-04-02T07:23:53;93631.16;;;18.96;34.48
21395;BME280;10858;42.714;23.180;2023-04-02T07:26:23;93635.31;;;20.09;33.42
21395;BME280;10858;42.714;23.180;2023-04-02T07:28:56;93629.31;;;20.71;34.40
21395;BME280;10858;42.714;23.180;2023-04-02T07:31:26;93638.00;;;20.09;33.56
21395;BME280;10858;42.714;23.180;2023-04-02T07:33:55;93638.56;;;20.38;33.04
21395;BME280;10858;42.714;23.180;2023-04-02T07:36:24;93636.25;;;20.48;33.56
21395;BME280;10858;42.714;23.180;2023-04-02T07:38:51;93637.66;;;22.13;30.42
21395;BME280;10858;42.714;23.180;2023-04-02T07:41:18;93637.75;;;21.81;31.73
21395;BME280;10858;42.714;23.180;2023-04-02T07:43:45;93648.09;;;21.29;30.66
21395;BME280;10858;42.714;23.180;2023-04-02T07:46:12;93641.13;;;23.40;27.62
21395;BME280;10858;42.714;23.180;2023-04-02T07:48:42;93640.28;;;21.45;31.51
21395;BME280;10858;42.714;23.180;2023-04-02T07:51:18;93653.34;;;20.73;34.31
21395;BME280;10858;42.714;23.180;2023-04-02T07:53:44;93644.72;;;20.58;32.57
21395;BME280;10858;42.714;23.180;2023-04-02T07:56:16;93639.03;;;20.21;36.94
21395;BME280;10858;42.714;23.180;2023-04-02T07:58:43;93647.50;;;19.07;33.54
21395;BME280;10858;42.714;23.180;2023-04-02T08:01:18;93643.34;;;22.05;31.79
21395;BME280;10858;42.714;23.180;2023-04-02T08:03:45;93641.38;;;22.36;31.86
21395;BME280;10858;42.714;23.180;2023-04-02T08:06:11;93645.38;;;22.70;29.30
21395;BME280;10858;42.714;23.180;2023-04-02T08:08:37;93646.41;;;21.34;31.34
21395;BME280;10858;42.714;23.180;2023-04-02T08:11:04;93650.41;;;20.81;31.88
21395;BME280;10858;42.714;23.180;2023-04-02T08:13:31;93646.94;;;21.18;32.11
21395;BME280;10858;42.714;23.180;2023-04-02T08:16:01;93654.03;;;22.18;33.04
21395;BME280;10858;42.714;23.180;2023-04-02T08:18:28;93662.88;;;24.39;28.93
21395;BME280;10858;42.714;23.180;2023-04-02T08:20:55;93665.13;;;23.89;29.53
21395;BME280;10858;42.714;23.180;2023-04-02T08:23:22;93658.22;;;20.95;32.46
21395;BME280;10858;42.714;23.180;2023-04-02T08:25:49;93651.88;;;21.21;31.38
21395;BME280;10858;42.714;23.180;2023-04-02T08:28:15;93652.25;;;23.61;27.80
21395;BME280;10858;42.714;23.180;2023-04-02T08:30:42;93650.22;;;23.57;28.66
21395;BME280;10858;42.714;23.180;2023-04-02T08:33:08;93647.75;;;21.74;30.53
21395;BME280;10858;42.714;23.180;2023-04-02T08:35:34;93652.06;;;22.25;30.65
21395;BME280;10858;42.714;23.180;2023-04-02T08:38:01;93658.66;;;22.71;29.97
21395;BME280;10858;42.714;23.180;2023-04-02T08:40:36;93656.00;;;21.79;31.26
21395;BME280;10858;42.714;23.180;2023-04-02T08:46:03;93647.81;;;21.05;30.62
21395;BME280;10858;42.714;23.180;2023-04-02T08:48:32;93659.16;;;22.26;32.29
21395;BME280;10858;42.714;23.180;2023-04-02T08:51:00;93649.56;;;22.84;30.23
21395;BME280;10858;42.714;23.180;2023-04-02T08:53:37;93650.22;;;21.82;32.70
21395;BME280;10858;42.714;23.180;2023-04-02T08:56:26;93648.91;;;21.60;31.69
21395;BME280;10858;42.714;23.180;2023-04-02T08:58:56;93664.06;;;20.35;36.60
21395;BME280;10858;42.714;23.180;2023-04-02T09:04:05;93657.56;;;20.56;34.22
21395;BME280;10858;42.714;23.180;2023-04-02T09:06:33;93664.69;;;20.17;33.71
21395;BME280;10858;42.714;23.180;2023-04-02T09:08:59;93661.28;;;17.97;36.03
21395;BME280;10858;42.714;23.180;2023-04-02T09:14:42;93658.41;;;17.98;37.12
21395;BME280;10858;42.714;23.180;2023-04-02T09:17:18;93661.75;;;17.02;39.25
21395;BME280;10858;42.714;23.180;2023-04-02T09:22:35;93668.66;;;16.55;38.86
21395;BME280;10858;42.714;23.180;2023-04-02T09:25:04;93656.63;;;16.86;38.85
21395;BME280;10858;42.714;23.180;2023-04-02T09:27:35;93651.22;;;17.71;38.00
21395;BME280;10858;42.714;23.180;2023-04-02T09:33:02;93652.66;;;20.40;35.99
21395;BME280;10858;42.714;23.180;2023-04-02T09:35:34;93641.56;;;21.43;30.65
21395;BME280;10858;42.714;23.180;2023-04-02T09:38:23;93638.34;;;21.83;30.01
21395;BME280;10858;42.714;23.180;2023-04-02T09:41:07;93636.63;;;20.58;32.32
21395;BME280;10858;42.714;23.180;2023-04-02T09:43:43;93639.19;;;18.89;35.57
21395;BME280;10858;42.714;23.180;2023-04-02T09:46:15;93642.31;;;18.99;37.26
21395;BME280;10858;42.714;23.180;2023-04-02T09:48:52;93637.88;;;18.18;34.91
21395;BME280;10858;42.714;23.180;2023-04-02T09:51:21;93633.66;;;19.17;32.38
21395;BME280;10858;42.714;23.180;2023-04-02T09:53:50;93637.84;;;20.62;32.92
21395;BME280;10858;42.714;23.180;2023-04-02T09:56:35;93627.75;;;20.88;31.31
21395;BME280;10858;42.714;23.180;2023-04-02T09:59:05;93639.06;;;19.56;33.00
21395;BME280;10858;42.714;23.180;2023-04-02T10:01:36;93638.66;;;19.20;32.83
21395;BME280;10858;42.714;23.180;2023-04-02T10:04:05;93635.13;;;18.12;36.82
21395;BME280;10858;42.714;23.180;2023-04-02T10:06:33;93636.06;;;17.91;37.35
21395;BME280;10858;42.714;23.180;2023-04-02T10:09:24;93626.44;;;17.69;40.26
21395;BME280;10858;42.714;23.180;2023-04-02T10:11:53;93624.94;;;17.94;36.61
21395;BME280;10858;42.714;23.180;2023-04-02T10:14:45;93630.88;;;18.71;35.82
21395;BME280;10858;42.714;23.180;2023-04-02T10:17:39;93628.31;;;19.56;35.50
21395;BME280;10858;42.714;23.180;2023-04-02T10:20:21;93621.69;;;19.19;36.83
21395;BME280;10858;42.714;23.180;2023-04-02T10:22:49;93625.81;;;19.22;35.46
21395;BME280;10858;42.714;23.180;2023-04-02T10:25:18;93621.22;;;18.90;36.82
21395;BME280;10858;42.714;23.180;2023-04-02T10:27:48;93625.25;;;18.12;38.06
21395;BME280;10858;42.714;23.180;2023-04-02T10:33:18;93633.00;;;20.13;37.67
21395;BME280;10858;42.714;23.180;2023-04-02T10:41:15;93623.94;;;24.57;26.90
21395;BME280;10858;42.714;23.180;2023-04-02T10:46:41;93620.78;;;20.23;34.00
21395;BME280;10858;42.714;23.180;2023-04-02T10:49:47;93621.41;;;18.82;35.59
21395;BME280;10858;42.714;23.180;2023-04-02T10:52:38;93612.47;;;18.68;36.40
21395;BME280;10858;42.714;23.180;2023-04-02T10:55:22;93608.91;;;18.14;36.89
21395;BME280;10858;42.714;23.180;2023-04-02T10:57:52;93610.50;;;18.42;36.19
21395;BME280;10858;42.714;23.180;2023-04-02T11:00:30;93616.03;;;18.34;36.29
21395;BME280;10858;42.714;23.180;2023-04-02T11:03:11;93613.59;;;17.64;36.56
21395;BME280;10858;42.714;23.180;2023-04-02T11:05:50;93607.88;;;17.74;35.71
21395;BME280;10858;42.714;23.180;2023-04-02T11:08:19;93611.31;;;19.16;34.95
21395;BME280;10858;42.714;23.180;2023-04-02T11:14:00;93612.22;;;22.02;28.81
21395;BME280;10858;42.714;23.180;2023-04-02T11:16:28;93605.44;;;23.31;27.82
21395;BME280;10858;42.714;23.180;2023-04-02T11:32:28;93608.84;;;20.95;31.28
21395;BME280;10858;42.714;23.180;2023-04-02T11:34:57;93593.38;;;21.95;30.39
21395;BME280;10858;42.714;23.180;2023-04-02T11:37:44;93600.03;;;20.37;33.52
21395;BME280;10858;42.714;23.180;2023-04-02T11:42:43;93591.88;;;19.08;33.57
21395;BME280;10858;42.714;23.180;2023-04-02T11:56:06;93579.69;;;20.48;32.67
21395;BME280;10858;42.714;23.180;2023-04-02T12:04:03;93588.78;;;19.30;36.21
21395;BME280;10858;42.714;23.180;2023-04-02T12:09:28;93587.59;;;23.53;29.47
21395;BME280;10858;42.714;23.180;2023-04-02T12:11:58;93589.16;;;24.93;26.12
21395;BME280;10858;42.714;23.180;2023-04-02T12:17:14;93575.19;;;24.73;26.17
21395;BME280;10858;42.714;23.180;2023-04-02T12:19:50;93579.06;;;21.70;28.93
21395;BME280;10858;42.714;23.180;2023-04-02T12:22:26;93583.63;;;19.48;32.85
21395;BME280;10858;42.714;23.180;2023-04-02T12:24:59;93578.22;;;18.90;32.88
21395;BME280;10858;42.714;23.180;2023-04-02T12:27:28;93579.41;;;18.61;33.16
21395;BME280;10858;42.714;23.180;2023-04-02T12:30:10;93573.66;;;18.84;32.93
21395;BME280;10858;42.714;23.180;2023-04-02T12:32:36;93566.50;;;20.64;30.59
21395;BME280;10858;42.714;23.180;2023-04-02T12:35:04;93569.19;;;22.00;29.15
21395;BME280;10858;42.714;23.180;2023-04-02T12:37:31;93569.66;;;21.30;30.82
21395;BME280;10858;42.714;23.180;2023-04-02T12:40:16;93558.94;;;21.91;29.11
21395;BME280;10858;42.714;23.180;2023-04-02T12:42:42;93567.53;;;21.01;30.42
21395;BME280;10858;42.714;23.180;2023-04-02T12:45:24;93567.06;;;21.42;30.64
21395;BME280;10858;42.714;23.180;2023-04-02T12:47:51;93561.91;;;20.33;30.13
21395;BME280;10858;42.714;23.180;2023-04-02T12:50:19;93569.53;;;19.73;31.29
21395;BME280;10858;42.714;23.180;2023-04-02T12:52:49;93564.16;;;19.01;31.42
21395;BME280;10858;42.714;23.180;2023-04-02T12:55:20;93557.69;;;18.56;33.95
21395;BME280;10858;42.714;23.180;2023-04-02T12:57:47;93557.56;;;18.23;35.70
21395;BME280;10858;42.714;23.180;2023-04-02T13:05:38;93553.59;;;22.39;28.06
21395;BME280;10858;42.714;23.180;2023-04-02T13:08:15;93547.47;;;23.50;26.58
21395;BME280;10858;42.714;23.180;2023-04-02T13:10:42;93551.13;;;24.65;24.29
21395;BME280;10858;42.714;23.180;2023-04-02T13:13:23;93553.94;;;23.96;25.77
21395;BME280;10858;42.714;23.180;2023-04-02T13:18:38;93553.50;;;21.24;31.27
21395;BME280;10858;42.714;23.180;2023-04-02T13:21:25;93543.25;;;22.36;26.55
21395;BME280;10858;42.714;23.180;2023-04-02T13:23:52;93551.34;;;22.72;25.39
21395;BME280;10858;42.714;23.180;2023-04-02T13:26:24;93539.72;;;22.83;25.71
21395;BME280;10858;42.714;23.180;2023-04-02T13:29:02;93539.53;;;23.37;25.74
21395;BME280;10858;42.714;23.180;2023-04-02T13:31:30;93541.56;;;24.00;25.04
21395;BME280;10858;42.714;23.180;2023-04-02T13:33:56;93540.88;;;23.81;24.52
21395;BME280;10858;42.714;23.180;2023-04-02T13:36:22;93536.06;;;24.58;25.49
21395;BME280;10858;42.714;23.180;2023-04-02T13:38:48;93533.97;;;24.48;24.53
21395;BME280;10858;42.714;23.180;2023-04-02T13:41:21;93532.41;;;24.12;25.19
21395;BME280;10858;42.714;23.180;2023-04-02T13:43:51;93536.97;;;24.00;25.38
21395;BME280;10858;42.714;23.180;2023-04-02T13:46:23;93528.69;;;24.81;24.88
21395;BME280;10858;42.714;23.180;2023-04-02T13:48:52;93530.75;;;23.77;25.58
21395;BME280;10858;42.714;23.180;2023-04-02T13:51:26;93537.22;;;23.87;25.74
21395;BME280;10858;42.714;23.180;2023-04-02T13:53:57;93529.94;;;23.76;25.65
21395;BME280;10858;42.714;23.180;2023-04-02T13:56:23;93523.88;;;24.32;26.29
21395;BME280;10858;42.714;23.180;2023-04-02T13:58:51;93541.63;;;25.36;23.32
21395;BME280;10858;42.714;23.180;2023-04-02T14:01:18;93524.50;;;25.18;22.61
21395;BME280;10858;42.714;23.180;2023-04-02T14:03:45;93526.06;;;24.07;24.72
21395;BME280;10858;42.714;23.180;2023-04-02T14:06:23;93526.84;;;23.61;25.67
21395;BME280;10858;42.714;23.180;2023-04-02T14:17:36;93511.69;;;22.48;27.72
21395;BME280;10858;42.714;23.180;2023-04-02T14:20:19;93516.09;;;22.78;26.46
21395;BME280;10858;42.714;23.180;2023-04-02T14:26:00;93519.94;;;23.77;24.62
21395;BME280;10858;42.714;23.180;2023-04-02T14:31:52;93523.03;;;18.94;29.93
21395;BME280;10858;42.714;23.180;2023-04-02T14:37:40;93520.00;;;21.06;27.60
21395;BME280;10858;42.714;23.180;2023-04-02T14:40:44;93524.72;;;21.42;27.36
21395;BME280;10858;42.714;23.180;2023-04-02T14:51:35;93508.88;;;23.14;25.07
21395;BME280;10858;42.714;23.180;2023-04-02T14:56:51;93516.88;;;23.09;24.44
21395;BME280;10858;42.714;23.180;2023-04-02T15:01:59;93517.69;;;20.79;28.71
21395;BME280;10858;42.714;23.180;2023-04-02T15:04:39;93518.84;;;20.96;27.64
21395;BME280;10858;42.714;23.180;2023-04-02T15:07:21;93523.44;;;20.20;28.78
21395;BME280;10858;42.714;23.180;2023-04-02T15:10:13;93535.38;;;19.60;29.05
21395;BME280;10858;42.714;23.180;2023-04-02T15:12:43;93545.13;;;19.48;30.45
21395;BME280;10858;42.714;23.180;2023-04-02T15:15:41;93547.41;;;19.44;29.38
21395;BME280;10858;42.714;23.180;2023-04-02T15:18:14;93534.06;;;18.38;32.02
21395;BME280;10858;42.714;23.180;2023-04-02T15:31:12;93548.34;;;17.30;33.65
21395;BME280;10858;42.714;23.180;2023-04-02T15:33:44;93549.22;;;16.81;34.05
21395;BME280;10858;42.714;23.180;2023-04-02T15:39:36;93546.88;;;17.21;33.72
21395;BME280;10858;42.714;23.180;2023-04-02T15:42:09;93538.88;;;18.02;31.91
21395;BME280;10858;42.714;23.180;2023-04-02T15:44:57;93543.81;;;17.58;32.78
21395;BME280;10858;42.714;23.180;2023-04-02T15:53:05;93542.94;;;16.11;34.71
21395;BME280;10858;42.714;23.180;2023-04-02T16:09:48;93561.75;;;15.15;37.25
21395;BME280;10858;42.714;23.180;2023-04-02T16:12:19;93564.16;;;14.73;38.75
21395;BME280;10858;42.714;23.180;2023-04-02T16:14:47;93560.13;;;14.77;39.02
21395;BME280;10858;42.714;23.180;2023-04-02T16:17:42;93568.00;;;14.93;40.23
21395;BME280;10858;42.714;23.180;2023-04-02T16:20:33;93567.38;;;15.06;39.81
21395;BME280;10858;42.714;23.180;2023-04-02T16:23:02;93558.75;;;15.18;39.08
21395;BME280;10858;42.714;23.180;2023-04-02T16:25:57;93561.13;;;15.13;41.39
21395;BME280;10858;42.714;23.180;2023-04-02T16:28:45;93554.84;;;14.69;41.35
21395;BME280;10858;42.714;23.180;2023-04-02T16:34:01;93561.22;;;14.68;40.53
21395;BME280;10858;42.714;23.180;2023-04-02T16:37:06;93563.34;;;14.73;41.63
21395;BME280;10858;42.714;23.180;2023-04-02T16:51:09;93580.00;;;13.21;47.66
21395;BME280;10858;42.714;23.180;2023-04-02T16:54:04;93573.56;;;12.67;50.30
21395;BME280;10858;42.714;23.180;2023-04-02T17:11:27;93605.63;;;11.26;51.78
21395;BME280;10858;42.714;23.180;2023-04-02T17:13:44;93605.72;;;11.17;51.51
21395;BME280;10858;42.714;23.180;2023-04-02T17:18:50;93606.56;;;10.91;53.91
21395;BME280;10858;42.714;23.180;2023-04-02T17:21:19;93609.47;;;10.80;53.68
21395;BME280;10858;42.714;23.180;2023-04-02T17:23:50;93607.25;;;10.50;55.49
21395;BME280;10858;42.714;23.180;2023-04-02T17:26:20;93611.81;;;10.40;55.99
21395;BME280;10858;42.714;23.180;2023-04-02T17:28:49;93615.47;;;10.21;57.93
21395;BME280;10858;42.714;23.180;2023-04-02T17:31:27;93619.84;;;10.31;56.21
21395;BME280;10858;42.714;23.180;2023-04-02T17:33:55;93622.75;;;9.92;58.49
21395;BME280;10858;42.714;23.180;2023-04-02T17:36:37;93625.69;;;9.72;59.05
21395;BME280;10858;42.714;23.180;2023-04-02T17:39:31;93631.09;;;9.80;58.95
21395;BME280;10858;42.714;23.180;2023-04-02T17:48:16;93650.63;;;9.52;59.39
21395;BME280;10858;42.714;23.180;2023-04-02T17:51:15;93648.41;;;9.47;60.04
21395;BME280;10858;42.714;23.180;2023-04-02T17:53:59;93646.88;;;9.08;60.23
21395;BME280;10858;42.714;23.180;2023-04-02T17:59:26;93653.81;;;8.63;61.02
21395;BME280;10858;42.714;23.180;2023-04-02T18:02:15;93658.97;;;8.74;62.04
21395;BME280;10858;42.714;23.180;2023-04-02T18:08:13;93669.84;;;8.51;61.38
21395;BME280;10858;42.714;23.180;2023-04-02T18:14:05;93678.16;;;8.76;62.81
21395;BME280;10858;42.714;23.180;2023-04-02T18:16:41;93676.53;;;9.02;63.52
21395;BME280;10858;42.714;23.180;2023-04-02T18:19:17;93686.91;;;9.32;61.07
21395;BME280;10858;42.714;23.180;2023-04-02T18:22:01;93689.06;;;9.46;59.57
21395;BME280;10858;42.714;23.180;2023-04-02T18:24:40;93689.63;;;9.50;58.83